Time;durP1;ratioP1;P1;durP2;ratioP2;P2;SDS_P1;SDS_P2;PMS_P1;PMS_P2;Temp;Humidity;BMP_temperature;BMP_pressure;BME280_temperature;BME280_humidity;BME280_pressure;Samples;Min_cycle;Max_cycle;Signal;HPM_P1;HPM_P2
2021/12/26 00:00:21;;;;;;;13.43;8.18;;;;;;;3.16;100.00;97824.53;5055565;28;20025;-70
2021/12/26 00:02:47;;;;;;;12.27;7.55;;;;;;;3.03;100.00;97822.47;5045438;28;20025;-69
2021/12/26 00:05:13;;;;;;;14.23;7.65;;;;;;;3.05;100.00;97819.63;5048750;28;20487;-69
2021/12/26 00:07:39;;;;;;;14.80;8.50;;;;;;;3.11;100.00;97820.75;5047125;28;20036;-70
2021/12/26 00:10:07;;;;;;;14.40;7.75;;;;;;;3.00;100.00;97812.13;5052130;28;20390;-70
2021/12/26 00:12:32;;;;;;;14.35;8.48;;;;;;;2.99;100.00;97797.13;5049714;28;20037;-70
2021/12/26 00:14:57;;;;;;;13.88;8.32;;;;;;;3.11;100.00;97816.22;5075478;22;20044;-78
2021/12/26 00:17:23;;;;;;;12.73;7.72;;;;;;;3.11;100.00;97824.22;5046861;28;20740;-72
2021/12/26 00:19:49;;;;;;;12.15;7.63;;;;;;;3.07;100.00;97828.28;5047755;28;20025;-73
2021/12/26 00:22:14;;;;;;;14.75;8.27;;;;;;;3.01;100.00;97811.16;5053208;28;20446;-73
2021/12/26 00:24:40;;;;;;;11.65;6.97;;;;;;;2.97;100.00;97801.81;5052029;28;20466;-73
2021/12/26 00:27:05;;;;;;;13.60;7.38;;;;;;;3.05;100.00;97806.25;5054392;28;20029;-73
2021/12/26 00:29:30;;;;;;;13.75;7.57;;;;;;;2.98;100.00;97806.13;5057069;28;20020;-73
2021/12/26 00:31:56;;;;;;;13.60;7.45;;;;;;;3.14;100.00;97818.53;5060115;28;20031;-73
2021/12/26 00:34:21;;;;;;;13.95;8.63;;;;;;;3.10;100.00;97816.41;5059702;28;20115;-73
2021/12/26 00:36:46;;;;;;;12.50;7.85;;;;;;;3.02;100.00;97811.97;5057735;28;20017;-72
2021/12/26 00:39:11;;;;;;;11.82;7.38;;;;;;;2.90;100.00;97800.88;5057392;28;20041;-73
2021/12/26 00:41:39;;;;;;;14.15;8.70;;;;;;;2.93;100.00;97810.34;5059153;28;20032;-73
2021/12/26 00:44:06;;;;;;;12.35;7.43;;;;;;;2.92;100.00;97819.41;5054219;28;20025;-73
2021/12/26 00:46:32;;;;;;;15.13;8.60;;;;;;;2.93;100.00;97805.84;5058232;28;20107;-73
2021/12/26 00:48:57;;;;;;;14.40;7.88;;;;;;;3.04;100.00;97823.31;5053385;28;20107;-72
2021/12/26 00:51:23;;;;;;;13.13;8.00;;;;;;;2.90;100.00;97798.19;5058371;28;20032;-73
2021/12/26 00:53:48;;;;;;;15.13;8.90;;;;;;;2.99;100.00;97817.69;5056110;28;20029;-73
2021/12/26 00:56:15;;;;;;;13.52;7.95;;;;;;;2.97;100.00;97828.53;5061489;28;20025;-72
2021/12/26 00:58:41;;;;;;;15.25;8.07;;;;;;;2.92;100.00;97814.06;5055872;28;20037;-73
2021/12/26 01:01:06;;;;;;;15.52;8.82;;;;;;;2.89;100.00;97811.75;5057919;28;20029;-73
2021/12/26 01:03:31;;;;;;;13.07;8.00;;;;;;;2.90;100.00;97805.38;5052572;28;20548;-73
2021/12/26 01:05:57;;;;;;;14.65;8.45;;;;;;;2.86;100.00;97815.59;5060935;28;20025;-73
2021/12/26 01:08:27;;;;;;;15.63;8.52;;;;;;;2.81;100.00;97816.13;5055780;28;20669;-73
2021/12/26 01:10:59;;;;;;;19.13;8.68;;;;;;;2.88;100.00;97797.53;5048797;28;20040;-73
2021/12/26 01:13:30;;;;;;;13.60;7.80;;;;;;;2.82;100.00;97799.09;5047566;28;20036;-72
2021/12/26 01:15:58;;;;;;;14.05;7.85;;;;;;;2.90;100.00;97802.72;5052464;28;20025;-73
2021/12/26 01:18:26;;;;;;;16.20;8.27;;;;;;;2.83;100.00;97810.63;5056351;28;20032;-73
2021/12/26 01:21:03;;;;;;;15.90;8.48;;;;;;;2.82;100.00;97807.09;5055215;28;20518;-73
2021/12/26 01:23:30;;;;;;;15.65;8.23;;;;;;;2.80;100.00;97809.13;5057595;28;20051;-73
2021/12/26 01:25:55;;;;;;;13.75;7.97;;;;;;;2.83;100.00;97816.78;5053499;28;20527;-73
2021/12/26 01:28:23;;;;;;;14.38;8.25;;;;;;;2.82;100.00;97807.09;5077346;28;20021;-73
2021/12/26 01:30:49;;;;;;;13.90;8.20;;;;;;;2.84;100.00;97823.78;5077204;28;20020;-70
2021/12/26 01:33:18;;;;;;;19.25;8.13;;;;;;;2.91;100.00;97815.91;5079050;28;20482;-71
2021/12/26 01:35:44;;;;;;;16.60;8.85;;;;;;;2.93;100.00;97810.34;5079720;28;20120;-71
2021/12/26 01:38:13;;;;;;;14.00;7.80;;;;;;;2.94;100.00;97820.06;5080176;28;20033;-72
2021/12/26 01:40:47;;;;;;;14.43;8.55;;;;;;;2.78;100.00;97803.13;5078471;28;20020;-73
2021/12/26 01:43:15;;;;;;;13.00;8.13;;;;;;;2.87;100.00;97816.44;5077487;28;20057;-70
2021/12/26 01:45:40;;;;;;;14.77;8.05;;;;;;;2.80;100.00;97806.47;5077572;28;20031;-70
2021/12/26 01:48:06;;;;;;;14.27;7.55;;;;;;;2.79;100.00;97798.63;5079758;28;20029;-71
2021/12/26 01:50:32;;;;;;;14.77;7.85;;;;;;;2.84;100.00;97814.94;5078367;28;20091;-72
2021/12/26 01:52:59;;;;;;;15.25;8.68;;;;;;;2.86;100.00;97818.28;5074542;28;20029;-73
2021/12/26 01:55:36;;;;;;;14.27;7.72;;;;;;;2.88;100.00;97821.56;5082433;28;20063;-71
2021/12/26 01:58:02;;;;;;;12.52;7.40;;;;;;;2.93;100.00;97816.53;5070095;28;20094;-72
2021/12/26 02:00:28;;;;;;;12.43;7.43;;;;;;;2.88;100.00;97808.22;5055371;28;20028;-73
2021/12/26 02:02:53;;;;;;;14.82;8.32;;;;;;;2.90;100.00;97821.41;5072566;28;20043;-73
2021/12/26 02:05:20;;;;;;;14.98;7.55;;;;;;;2.96;100.00;97818.88;5055703;28;20083;-72
2021/12/26 02:07:45;;;;;;;13.43;8.15;;;;;;;2.88;100.00;97818.06;5053771;28;20434;-73
2021/12/26 02:10:10;;;;;;;13.18;7.97;;;;;;;2.89;100.00;97820.59;5072760;28;20102;-73
2021/12/26 02:12:36;;;;;;;15.00;8.05;;;;;;;2.84;100.00;97806.94;5049637;28;20068;-73
2021/12/26 02:15:01;;;;;;;13.75;7.65;;;;;;;2.94;100.00;97815.53;5045610;28;20029;-73
2021/12/26 02:17:28;;;;;;;15.70;8.10;;;;;;;2.85;100.00;97806.72;5049423;28;20115;-72
2021/12/26 02:20:59;;;;;;;13.18;7.43;;;;;;;2.88;100.00;97810.88;5045843;28;20095;-73
2021/12/26 02:28:24;;;;;;;13.17;7.47;;;;;;;2.85;100.00;97809.41;5060997;28;20033;-73
2021/12/26 02:30:50;;;;;;;15.52;7.90;;;;;;;2.83;100.00;97806.09;5056760;28;20051;-72
2021/12/26 02:33:18;;;;;;;12.15;7.45;;;;;;;2.84;100.00;97813.09;5045893;28;20022;-73
2021/12/26 02:35:45;;;;;;;11.52;7.38;;;;;;;2.83;100.00;97806.09;5046133;28;20029;-73
2021/12/26 02:38:12;;;;;;;15.75;7.50;;;;;;;2.75;100.00;97795.50;5052635;28;20036;-73
2021/12/26 02:40:39;;;;;;;14.00;6.90;;;;;;;2.91;100.00;97812.38;5071750;28;20024;-74
2021/12/26 02:43:06;;;;;;;13.93;7.43;;;;;;;2.87;100.00;97800.41;5059444;28;20421;-73
2021/12/26 02:45:32;;;;;;;13.98;8.20;;;;;;;2.83;100.00;97790.09;5049679;28;20134;-73
2021/12/26 02:47:57;;;;;;;12.63;7.63;;;;;;;2.82;100.00;97776.88;5043657;28;20036;-73
2021/12/26 02:50:29;;;;;;;13.40;7.72;;;;;;;2.91;100.00;97785.66;5052493;28;20024;-73
2021/12/26 02:52:56;;;;;;;13.13;7.20;;;;;;;3.06;100.00;97802.56;5056837;28;20025;-72
2021/12/26 02:55:23;;;;;;;13.60;7.80;;;;;;;3.08;100.00;97806.72;5057793;28;20036;-73
2021/12/26 02:57:53;;;;;;;11.65;6.93;;;;;;;3.03;100.00;97797.59;5054648;28;20111;-72
2021/12/26 03:00:31;;;;;;;11.07;7.05;;;;;;;3.11;100.00;97807.38;5052088;28;20055;-73
2021/12/26 03:02:59;;;;;;;13.23;7.70;;;;;;;3.00;100.00;97800.63;5048197;28;20052;-74
2021/12/26 03:05:28;;;;;;;12.15;7.07;;;;;;;3.05;100.00;97809.75;5051047;28;20513;-73
2021/12/26 03:07:54;;;;;;;12.10;7.13;;;;;;;2.88;100.00;97797.53;5052215;28;20048;-74
2021/12/26 03:10:22;;;;;;;17.45;8.05;;;;;;;2.95;100.00;97819.03;5053124;28;20060;-73
2021/12/26 03:12:52;;;;;;;15.93;8.23;;;;;;;2.92;100.00;97808.72;5052799;28;20035;-75
2021/12/26 03:15:19;;;;;;;14.77;8.40;;;;;;;2.94;100.00;97817.38;5052380;28;20025;-75
2021/12/26 03:17:44;;;;;;;13.52;7.57;;;;;;;2.90;100.00;97824.09;5050424;28;20060;-75
2021/12/26 03:20:12;;;;;;;13.27;7.70;;;;;;;2.84;100.00;97813.09;5050357;28;20056;-75
2021/12/26 03:22:38;;;;;;;15.77;8.25;;;;;;;2.90;100.00;97816.06;5055347;28;20028;-74
2021/12/26 03:25:05;;;;;;;14.63;8.60;;;;;;;2.85;100.00;97800.56;5050619;28;20029;-74
2021/12/26 03:27:31;;;;;;;14.40;8.55;;;;;;;2.79;100.00;97812.81;5052071;28;20021;-75
2021/12/26 03:29:56;;;;;;;17.80;8.63;;;;;;;2.94;100.00;97822.72;5051635;28;20032;-74
2021/12/26 03:32:23;;;;;;;15.02;7.63;;;;;;;2.77;100.00;97803.31;5056185;28;20685;-74
2021/12/26 03:34:50;;;;;;;14.63;7.80;;;;;;;2.86;100.00;97818.28;5053101;28;20024;-74
2021/12/26 03:37:17;;;;;;;15.23;8.18;;;;;;;2.90;100.00;97824.09;5056287;28;20108;-73
2021/12/26 03:39:42;;;;;;;15.85;8.80;;;;;;;2.87;100.00;97817.25;5053941;28;20107;-74
2021/12/26 03:42:08;;;;;;;13.75;7.63;;;;;;;2.93;100.00;97829.06;5058982;28;20108;-73
2021/12/26 03:44:33;;;;;;;15.30;7.57;;;;;;;2.88;100.00;97828.75;5051650;28;20052;-72
2021/12/26 03:46:59;;;;;;;15.77;8.23;;;;;;;2.85;100.00;97825.44;5051196;28;20024;-74
2021/12/26 03:49:24;;;;;;;12.70;7.13;;;;;;;2.81;100.00;97815.31;5048492;28;21648;-75
2021/12/26 03:51:49;;;;;;;13.88;7.68;;;;;;;2.90;100.00;97827.56;5048482;28;20099;-73
2021/12/26 03:54:15;;;;;;;12.38;7.07;;;;;;;2.93;100.00;97826.38;5050573;28;20421;-74
2021/12/26 03:56:40;;;;;;;13.75;7.78;;;;;;;2.79;100.00;97799.44;5052004;28;20112;-74
2021/12/26 03:59:06;;;;;;;14.80;7.22;;;;;;;2.88;100.00;97802.88;5051995;28;20027;-72
2021/12/26 04:01:31;;;;;;;13.30;7.78;;;;;;;2.96;100.00;97823.34;5049440;28;20033;-75
2021/12/26 04:03:57;;;;;;;10.93;6.60;;;;;;;2.89;100.00;97807.22;5055979;28;20401;-71
2021/12/26 04:06:22;;;;;;;13.13;7.47;;;;;;;2.99;100.00;97817.69;5052097;28;20032;-74
2021/12/26 04:08:48;;;;;;;13.75;7.93;;;;;;;2.99;100.00;97818.50;5048677;28;20037;-74
2021/12/26 04:11:13;;;;;;;12.77;7.63;;;;;;;2.91;100.00;97812.38;5049643;28;20029;-73
2021/12/26 04:13:39;;;;;;;13.32;7.07;;;;;;;2.90;100.00;97813.41;5044532;28;20029;-73
2021/12/26 04:16:04;;;;;;;13.45;7.70;;;;;;;2.97;100.00;97814.34;5048914;28;20025;-74
2021/12/26 04:18:30;;;;;;;17.10;7.88;;;;;;;3.00;100.00;97817.47;5047673;28;20448;-73
2021/12/26 04:20:55;;;;;;;16.42;8.07;;;;;;;2.91;100.00;97813.22;5050059;28;20028;-73
2021/12/26 04:23:21;;;;;;;12.50;7.43;;;;;;;3.00;100.00;97822.00;5047441;28;20029;-73
2021/12/26 04:25:46;;;;;;;12.15;6.75;;;;;;;2.91;100.00;97807.88;5051502;28;20020;-73
2021/12/26 04:28:12;;;;;;;12.13;7.45;;;;;;;2.95;100.00;97816.38;5052208;28;20585;-73
2021/12/26 04:30:38;;;;;;;13.25;7.88;;;;;;;2.97;100.00;97822.38;5053708;28;20029;-73
2021/12/26 04:33:04;;;;;;;12.27;7.35;;;;;;;2.94;100.00;97814.72;5050905;28;20052;-73
2021/12/26 04:35:30;;;;;;;12.00;7.30;;;;;;;2.96;100.00;97824.22;5047485;28;20543;-74
2021/12/26 04:37:56;;;;;;;10.20;6.45;;;;;;;2.98;100.00;97818.66;5050354;28;20095;-73
2021/12/26 04:40:21;;;;;;;12.85;7.40;;;;;;;2.91;100.00;97807.03;5054044;28;20024;-73
2021/12/26 04:42:48;;;;;;;13.13;7.72;;;;;;;2.92;100.00;97804.19;5052315;28;20025;-74
2021/12/26 04:45:14;;;;;;;11.80;7.28;;;;;;;3.00;100.00;97816.66;5051081;28;20028;-73
2021/12/26 04:47:41;;;;;;;10.98;6.53;;;;;;;2.90;100.00;97805.38;5054142;28;20474;-73
2021/12/26 04:50:12;;;;;;;11.55;6.57;;;;;;;3.02;100.00;97804.78;5054143;28;20024;-73
2021/12/26 04:52:39;;;;;;;13.05;7.10;;;;;;;3.05;100.00;97815.09;5055983;28;20025;-73
2021/12/26 04:55:05;;;;;;;12.93;7.28;;;;;;;3.03;100.00;97810.94;5049571;28;20108;-73
2021/12/26 04:57:31;;;;;;;17.00;7.80;;;;;;;3.06;100.00;97813.25;5056814;28;20032;-71
2021/12/26 04:59:57;;;;;;;12.20;6.90;;;;;;;3.03;100.00;97816.28;5055599;28;20487;-72
2021/12/26 05:02:22;;;;;;;12.15;7.10;;;;;;;2.96;100.00;97796.63;5054489;28;20062;-72
2021/12/26 05:04:48;;;;;;;11.85;6.80;;;;;;;2.99;100.00;97809.66;5054516;28;20390;-72
2021/12/26 05:07:14;;;;;;;11.70;6.55;;;;;;;2.95;100.00;97797.66;5053924;28;20041;-72
2021/12/26 05:09:39;;;;;;;14.18;7.40;;;;;;;2.95;100.00;97816.38;5066607;28;20074;-73
2021/12/26 05:12:05;;;;;;;14.52;7.63;;;;;;;2.89;100.00;97809.91;5056629;28;20073;-72
2021/12/26 05:14:31;;;;;;;16.95;8.13;;;;;;;2.94;100.00;97796.84;5055780;28;20503;-72
2021/12/26 05:16:56;;;;;;;14.07;8.32;;;;;;;2.94;100.00;97817.38;5053100;28;20025;-72
2021/12/26 05:19:21;;;;;;;13.95;8.50;;;;;;;2.88;100.00;97802.88;5060026;28;20403;-72
2021/12/26 05:21:46;;;;;;;15.93;8.70;;;;;;;2.98;100.00;97808.81;5058815;28;20033;-72
2021/12/26 05:24:12;;;;;;;15.13;8.20;;;;;;;2.95;100.00;97813.69;5062704;28;20043;-71
2021/12/26 05:26:37;;;;;;;15.13;8.15;;;;;;;2.92;100.00;97814.88;5055431;28;20104;-72
2021/12/26 05:29:02;;;;;;;15.50;8.60;;;;;;;2.84;100.00;97785.56;5056244;28;20056;-72
2021/12/26 05:31:28;;;;;;;15.45;9.35;;;;;;;2.80;100.00;97795.78;5064095;28;20027;-72
2021/12/26 05:33:53;;;;;;;14.57;8.18;;;;;;;2.95;100.00;97811.03;5060007;28;20048;-72
2021/12/26 05:36:18;;;;;;;17.90;8.98;;;;;;;2.95;100.00;97805.69;5057556;28;20056;-72
2021/12/26 05:38:44;;;;;;;17.40;9.07;;;;;;;2.90;100.00;97810.72;5056606;28;20043;-71
2021/12/26 05:41:09;;;;;;;16.50;8.40;;;;;;;2.86;100.00;97802.25;5056918;28;20493;-73
2021/12/26 05:43:34;;;;;;;19.13;9.70;;;;;;;2.89;100.00;97809.06;5053775;28;20398;-72
2021/12/26 05:46:00;;;;;;;18.15;8.75;;;;;;;2.87;100.00;97800.41;5064075;28;20044;-72
2021/12/26 05:48:25;;;;;;;14.57;8.45;;;;;;;2.79;100.00;97796.78;5057068;28;20021;-73
2021/12/26 05:50:52;;;;;;;17.27;9.50;;;;;;;2.73;100.00;97784.16;5060732;28;20060;-72
2021/12/26 05:53:18;;;;;;;16.15;9.13;;;;;;;2.87;100.00;97813.75;5078193;28;20108;-73
2021/12/26 05:55:43;;;;;;;16.65;8.95;;;;;;;2.87;100.00;97811.09;5075072;28;20037;-72
2021/12/26 05:58:14;;;;;;;14.95;8.48;;;;;;;2.81;100.00;97804.63;5074359;28;20035;-73
2021/12/26 06:00:39;;;;;;;15.52;8.55;;;;;;;2.90;100.00;97808.06;5073691;28;20029;-72
2021/12/26 06:03:04;;;;;;;14.05;8.05;;;;;;;2.92;100.00;97808.72;5072524;28;20015;-72
2021/12/26 06:05:30;;;;;;;14.90;8.32;;;;;;;2.92;100.00;97809.53;5086811;28;20036;-73
2021/12/26 06:07:55;;;;;;;15.68;9.15;;;;;;;2.96;100.00;97810.00;5068128;28;20046;-72
2021/12/26 06:10:20;;;;;;;16.35;9.32;;;;;;;2.89;100.00;97803.72;5056457;28;20321;-72
2021/12/26 06:12:46;;;;;;;14.80;8.88;;;;;;;2.88;100.00;97807.41;5056021;28;20032;-73
2021/12/26 06:15:13;;;;;;;17.52;9.15;;;;;;;2.89;100.00;97803.72;5042344;28;20024;-72
2021/12/26 06:17:38;;;;;;;16.20;9.05;;;;;;;2.90;100.00;97811.53;5082990;22;20375;-70
2021/12/26 06:20:05;;;;;;;17.58;9.20;;;;;;;2.82;100.00;97796.41;5007426;28;20037;-69
2021/12/26 06:22:30;;;;;;;18.55;9.73;;;;;;;2.88;100.00;97813.56;5011889;28;20072;-68
2021/12/26 06:24:56;;;;;;;18.23;9.30;;;;;;;2.85;100.00;97809.41;5015194;28;20523;-67
2021/12/26 06:27:21;;;;;;;18.35;10.13;;;;;;;2.85;100.00;97812.06;5015290;28;20396;-68
2021/12/26 06:29:46;;;;;;;18.00;10.13;;;;;;;2.73;100.00;97794.00;5011999;28;20054;-68
2021/12/26 06:32:12;;;;;;;19.05;10.93;;;;;;;2.84;100.00;97806.94;5006454;28;20026;-68
2021/12/26 06:34:37;;;;;;;17.73;9.75;;;;;;;2.71;100.00;97788.84;4997551;28;20114;-68
2021/12/26 06:37:03;;;;;;;18.38;9.38;;;;;;;2.71;100.00;97799.50;5005243;28;20022;-68
2021/12/26 06:39:28;;;;;;;17.35;9.05;;;;;;;2.84;100.00;97823.78;5016752;28;20471;-67
2021/12/26 06:41:54;;;;;;;18.25;9.65;;;;;;;2.91;100.00;97820.38;5004851;28;20060;-68
2021/12/26 06:44:19;;;;;;;20.85;8.63;;;;;;;2.87;100.00;97827.94;5013993;28;20374;-68
2021/12/26 06:46:44;;;;;;;17.13;9.32;;;;;;;2.76;100.00;97821.19;5009475;28;20034;-67
2021/12/26 06:49:10;;;;;;;19.92;8.73;;;;;;;2.56;100.00;97790.59;4996339;28;20048;-67
2021/12/26 06:51:35;;;;;;;16.58;9.65;;;;;;;2.79;100.00;97825.34;5010467;28;20081;-68
2021/12/26 06:54:00;;;;;;;17.33;8.85;;;;;;;2.62;100.00;97804.09;4995835;28;20031;-70
2021/12/26 06:56:26;;;;;;;18.25;9.23;;;;;;;2.77;100.00;97833.50;5007274;28;20574;-71
2021/12/26 06:58:51;;;;;;;17.63;9.30;;;;;;;2.72;100.00;97841.22;5006242;28;20030;-71
2021/12/26 07:01:16;;;;;;;20.98;9.90;;;;;;;2.60;100.00;97807.94;5012187;28;20054;-71
2021/12/26 07:03:42;;;;;;;19.63;9.23;;;;;;;2.72;100.00;97837.72;5007364;28;20033;-71
2021/12/26 07:06:07;;;;;;;17.95;9.80;;;;;;;2.58;100.00;97820.63;4996961;28;20029;-71
2021/12/26 07:08:32;;;;;;;19.35;9.00;;;;;;;2.73;100.00;97836.75;5011880;28;20025;-70
2021/12/26 07:10:58;;;;;;;17.30;9.43;;;;;;;2.62;100.00;97829.97;5006239;28;20050;-71
2021/12/26 07:13:24;;;;;;;19.10;9.70;;;;;;;2.58;100.00;97807.28;5005250;28;20033;-71
2021/12/26 07:15:49;;;;;;;21.55;9.55;;;;;;;2.80;100.00;97841.19;5003640;28;20385;-71
2021/12/26 07:18:14;;;;;;;18.63;10.07;;;;;;;2.61;100.00;97817.59;5005759;28;20030;-76
2021/12/26 07:20:40;;;;;;;20.40;9.75;;;;;;;2.62;100.00;97814.78;5014513;28;20034;-74
2021/12/26 07:23:06;;;;;;;18.88;10.13;;;;;;;2.58;100.00;97815.28;5007966;28;20360;-74
2021/12/26 07:25:32;;;;;;;18.75;10.70;;;;;;;2.74;100.00;97844.56;5014317;28;20037;-75
2021/12/26 07:27:58;;;;;;;18.80;10.05;;;;;;;2.57;100.00;97817.13;5012893;28;20029;-73
2021/12/26 07:30:24;;;;;;;18.00;9.43;;;;;;;2.66;100.00;97838.44;5009442;28;21235;-74
2021/12/26 07:32:49;;;;;;;18.10;9.85;;;;;;;2.63;100.00;97818.25;4994394;28;20056;-72
2021/12/26 07:35:15;;;;;;;18.25;10.07;;;;;;;2.84;100.00;97845.16;5009740;28;20484;-71
2021/12/26 07:37:40;;;;;;;21.33;10.90;;;;;;;2.87;100.00;97843.97;4996452;28;20029;-71
2021/12/26 07:40:06;;;;;;;19.02;9.13;;;;;;;2.96;100.00;97850.06;5006973;28;20022;-71
2021/12/26 07:42:32;;;;;;;17.42;9.63;;;;;;;2.82;100.00;97831.13;5010394;28;20032;-71
2021/12/26 07:44:57;;;;;;;19.83;10.38;;;;;;;2.99;100.00;97852.41;5010910;28;20030;-71
2021/12/26 07:47:23;;;;;;;21.45;10.70;;;;;;;2.82;100.00;97830.31;4993630;28;20136;-71
2021/12/26 07:49:48;;;;;;;20.25;10.93;;;;;;;2.99;100.00;97853.25;5010739;28;20044;-72
2021/12/26 07:52:18;;;;;;;20.35;9.75;;;;;;;3.03;100.00;97865.22;5014580;28;20108;-70
2021/12/26 07:54:45;;;;;;;20.38;10.35;;;;;;;3.06;100.00;97861.34;5004327;28;20034;-66
2021/12/26 07:57:12;;;;;;;18.85;9.93;;;;;;;2.77;100.00;97820.16;5006255;28;20488;-73
2021/12/26 07:59:37;;;;;;;16.90;9.75;;;;;;;2.96;100.00;97842.91;5016970;28;20042;-68
2021/12/26 08:02:03;;;;;;;20.40;10.93;;;;;;;3.00;100.00;97840.72;5003521;28;20380;-70
2021/12/26 08:04:29;;;;;;;20.88;9.77;;;;;;;3.17;100.00;97860.09;5007985;28;20033;-73
2021/12/26 08:06:55;;;;;;;20.70;10.13;;;;;;;2.86;100.00;97820.94;5012003;28;20026;-72
2021/12/26 08:09:20;;;;;;;18.73;10.18;;;;;;;3.02;100.00;97852.88;5008311;28;20483;-75
2021/12/26 08:11:46;;;;;;;19.67;10.20;;;;;;;2.91;100.00;97850.63;5008019;28;20162;-73
2021/12/26 08:14:12;;;;;;;20.38;10.43;;;;;;;3.13;100.00;97872.19;4993038;28;20026;-73
2021/12/26 08:16:38;;;;;;;16.88;9.57;;;;;;;3.03;100.00;97851.84;5011234;28;20479;-74
2021/12/26 08:19:03;;;;;;;18.92;10.00;;;;;;;2.86;100.00;97818.28;5011783;28;20062;-73
2021/12/26 08:21:29;;;;;;;19.88;10.70;;;;;;;3.00;100.00;97835.34;5012491;28;20040;-72
2021/12/26 08:23:54;;;;;;;18.55;10.48;;;;;;;3.01;100.00;97831.66;4994040;28;20049;-75
2021/12/26 08:26:20;;;;;;;24.77;10.27;;;;;;;3.25;100.00;97866.22;5002991;28;20029;-72
2021/12/26 08:28:45;;;;;;;18.27;9.45;;;;;;;3.06;100.00;97815.94;5003656;28;20033;-74
2021/12/26 08:31:11;;;;;;;18.40;9.75;;;;;;;3.36;100.00;97870.31;5002632;28;20030;-77
2021/12/26 08:33:36;;;;;;;17.77;10.10;;;;;;;3.33;100.00;97868.00;5001687;28;20058;-73
2021/12/26 08:36:02;;;;;;;18.75;10.73;;;;;;;3.47;100.00;97871.72;5005235;28;20054;-73
2021/12/26 08:38:28;;;;;;;20.70;10.90;;;;;;;3.25;100.00;97842.16;4986453;28;20030;-73
2021/12/26 08:40:55;;;;;;;19.67;10.25;;;;;;;3.37;100.00;97841.72;5004307;28;20022;-72
2021/12/26 08:43:21;;;;;;;19.67;10.18;;;;;;;3.56;100.00;97865.25;5015660;28;20091;-70
2021/12/26 08:45:47;;;;;;;23.80;11.02;;;;;;;3.79;100.00;97869.75;5007675;28;20026;-72
2021/12/26 08:48:13;;;;;;;21.88;12.25;;;;;;;3.72;100.00;97873.16;5005365;28;20096;-72
2021/12/26 08:50:38;;;;;;;22.50;11.82;;;;;;;3.50;100.00;97810.66;5013297;28;20025;-75
2021/12/26 08:53:04;;;;;;;19.90;11.40;;;;;;;3.79;100.00;97838.47;4992794;28;20026;-77
2021/12/26 08:55:31;;;;;;;20.45;11.18;;;;;;;4.06;100.00;97865.59;5013369;28;20084;-74
2021/12/26 08:57:58;;;;;;;21.52;11.45;;;;;;;4.06;100.00;97847.69;5012959;28;20109;-73
2021/12/26 09:00:23;;;;;;;19.63;10.23;;;;;;;4.14;100.00;97850.28;5020299;28;20372;-74
2021/12/26 09:02:50;;;;;;;23.27;9.60;;;;;;;4.28;100.00;97870.00;5000635;28;20064;-75
2021/12/26 09:05:15;;;;;;;17.02;9.40;;;;;;;4.38;100.00;97864.38;5014975;28;20029;-73
2021/12/26 09:07:41;;;;;;;17.05;9.77;;;;;;;4.55;100.00;97871.16;5011433;28;20353;-75
2021/12/26 09:10:09;;;;;;;17.23;10.10;;;;;;;4.69;100.00;97865.97;5009460;28;20022;-73
2021/12/26 09:12:35;;;;;;;16.70;10.02;;;;;;;4.87;100.00;97836.88;5009561;28;20030;-74
2021/12/26 09:15:02;;;;;;;16.55;10.00;;;;;;;5.19;100.00;97851.66;5006620;28;20022;-72
2021/12/26 09:17:27;;;;;;;20.20;10.55;;;;;;;5.16;100.00;97856.53;5001891;28;20048;-70
2021/12/26 09:19:52;;;;;;;18.80;8.82;;;;;;;5.20;99.61;97872.06;5008218;28;20359;-73
2021/12/26 09:22:18;;;;;;;15.15;9.20;;;;;;;4.87;100.00;97834.19;5005415;28;20505;-74
2021/12/26 09:24:45;;;;;;;16.98;9.43;;;;;;;5.22;100.00;97878.06;4989118;28;20017;-73
2021/12/26 09:27:12;;;;;;;19.73;10.57;;;;;;;5.13;100.00;97878.38;5006801;28;20533;-72
2021/12/26 09:29:38;;;;;;;19.65;11.38;;;;;;;5.25;100.00;97882.22;4992681;28;20136;-75
2021/12/26 09:32:04;;;;;;;16.83;10.25;;;;;;;4.69;100.00;97839.16;5012426;28;20100;-74
2021/12/26 09:34:33;;;;;;;18.50;10.25;;;;;;;4.70;100.00;97863.09;5013372;28;20021;-73
2021/12/26 09:36:59;;;;;;;17.55;9.80;;;;;;;4.84;100.00;97890.88;5014291;28;20060;-74
2021/12/26 09:39:25;;;;;;;15.73;9.45;;;;;;;4.70;100.00;97878.34;5010275;28;20450;-74
2021/12/26 09:41:51;;;;;;;18.25;10.00;;;;;;;4.64;100.00;97898.69;5007522;28;20155;-72
2021/12/26 09:44:18;;;;;;;17.80;10.35;;;;;;;4.52;100.00;97909.03;5015413;28;20034;-70
2021/12/26 09:46:44;;;;;;;15.80;9.27;;;;;;;4.41;100.00;97874.72;5008364;28;20026;-75
2021/12/26 09:49:10;;;;;;;18.60;8.88;;;;;;;4.60;100.00;97878.63;5015698;28;20026;-74
2021/12/26 09:51:36;;;;;;;16.13;9.10;;;;;;;4.78;100.00;97900.50;5021969;28;20040;-70
2021/12/26 09:54:04;;;;;;;18.73;9.55;;;;;;;4.83;100.00;97899.94;5009964;28;20029;-70
2021/12/26 09:56:29;;;;;;;15.43;8.57;;;;;;;4.86;100.00;97888.84;5019024;28;20108;-75
2021/12/26 09:59:06;;;;;;;14.40;8.43;;;;;;;4.73;100.00;97845.81;5014993;28;20870;-75
2021/12/26 10:01:34;;;;;;;14.13;8.73;;;;;;;5.15;100.00;97897.78;5014527;28;20032;-73
2021/12/26 10:04:21;;;;;;;15.70;8.40;;;;;;;5.42;100.00;97875.56;5009697;28;20040;-73
2021/12/26 10:06:48;;;;;;;12.65;7.50;;;;;;;5.63;100.00;97847.03;5001649;28;20034;-69
2021/12/26 10:09:15;;;;;;;13.60;7.57;;;;;;;5.97;100.00;97843.56;5009863;28;20495;-70
2021/12/26 10:11:43;;;;;;;14.20;8.15;;;;;;;6.15;98.22;97867.22;5004182;28;20183;-69
2021/12/26 10:14:11;;;;;;;14.20;8.32;;;;;;;6.20;99.24;97859.41;5007208;28;20045;-73
2021/12/26 10:16:43;;;;;;;13.93;8.02;;;;;;;6.09;98.66;97847.38;4991887;28;20040;-69
2021/12/26 10:19:09;;;;;;;14.68;8.23;;;;;;;6.18;98.32;97842.66;4994368;28;20497;-69
2021/12/26 10:21:37;;;;;;;13.93;8.02;;;;;;;5.95;98.43;97828.69;5006247;28;20030;-67
2021/12/26 10:24:10;;;;;;;12.63;7.30;;;;;;;6.26;99.10;97852.41;5009366;28;20029;-70
2021/12/26 10:26:38;;;;;;;14.70;7.78;;;;;;;6.67;97.85;97862.28;5011655;28;20026;-71
2021/12/26 10:29:18;;;;;;;12.30;7.10;;;;;;;6.78;94.46;97854.47;5001662;28;20119;-70
2021/12/26 10:32:13;;;;;;;16.90;8.13;;;;;;;6.87;94.97;97844.38;5011092;28;20018;-71
2021/12/26 10:34:48;;;;;;;12.75;7.70;;;;;;;7.38;93.40;97834.91;4992092;28;20064;-72
2021/12/26 10:37:18;;;;;;;13.18;8.10;;;;;;;7.87;88.87;97836.34;5007517;28;20042;-71
2021/12/26 10:39:57;;;;;;;13.68;8.35;;;;;;;8.42;84.95;97804.47;5012907;28;20064;-70
2021/12/26 10:42:29;;;;;;;14.70;8.40;;;;;;;8.99;82.07;97829.69;5006844;28;20368;-69
2021/12/26 10:44:58;;;;;;;14.52;8.05;;;;;;;9.54;81.22;97828.28;5005724;28;20046;-69
2021/12/26 10:47:26;;;;;;;18.63;9.32;;;;;;;9.31;80.58;97818.06;5004884;28;20503;-68
2021/12/26 10:49:58;;;;;;;27.83;11.73;;;;;;;8.89;82.08;97832.03;4987837;28;20503;-69
2021/12/26 10:52:30;;;;;;;11.48;7.80;;;;;;;8.53;82.03;97821.84;4987141;28;20522;-69
2021/12/26 10:55:01;;;;;;;12.98;8.57;;;;;;;8.39;84.76;97839.97;5007283;28;20497;-69
2021/12/26 10:57:34;;;;;;;17.38;10.73;;;;;;;8.20;86.36;97822.78;5005754;28;20038;-68
2021/12/26 11:00:03;;;;;;;12.45;8.10;;;;;;;7.86;87.24;97810.44;4990136;28;20079;-68
2021/12/26 11:02:30;;;;;;;15.07;8.95;;;;;;;7.81;88.42;97834.50;5001559;28;20049;-68
2021/12/26 11:05:03;;;;;;;13.10;7.90;;;;;;;7.78;89.27;97840.25;5012315;28;20034;-68
2021/12/26 11:07:55;;;;;;;12.55;8.30;;;;;;;7.65;90.06;97838.41;5010523;28;20754;-68
2021/12/26 11:10:31;;;;;;;13.70;7.63;;;;;;;7.46;90.73;97803.22;5012408;28;20030;-68
2021/12/26 11:13:00;;;;;;;12.43;7.70;;;;;;;7.54;91.86;97834.50;4990074;28;20029;-68
2021/12/26 11:15:28;;;;;;;15.10;8.90;;;;;;;7.34;92.27;97812.16;5008570;28;20506;-69
2021/12/26 11:18:06;;;;;;;16.02;7.82;;;;;;;7.22;93.00;97828.06;5006479;28;20041;-73
2021/12/26 11:20:40;;;;;;;14.98;8.98;;;;;;;6.80;95.06;97832.75;5006365;28;20026;-70
2021/12/26 11:23:10;;;;;;;14.75;8.55;;;;;;;6.72;96.18;97827.56;4998700;28;20377;-69
2021/12/26 11:25:45;;;;;;;17.02;8.55;;;;;;;6.53;98.41;97824.63;5003880;28;20027;-70
2021/12/26 11:28:13;;;;;;;16.83;9.30;;;;;;;6.26;99.00;97793.31;5006740;28;20130;-71